Big Bear Station Historical Data
Daily Summary for January 4, 2017 Units:  English    Metric   Both
« Previous Day
Next Day »
Daily Weekly Monthly Yearly Custom
  High: Low: Average:
Temperature: 45.1 °F 32.7 °F 37.9 °F
Dew Point: 38.1 °F 26.3 °F 33.9 °F
Humidity: 99 % 73 % 86 %
Wind Speed: 7.8 mph 0.0 mph 2.6 mph
Wind Gust: -999.0 mph - -
Wind:- - West
Pressure: 23.51 in 23.42 in -
Precipitation: 0.40 in    
Historical Graphs
 
 
Tabular Data for January 4, 2017
Time Temperature Dew Point Pressure Wind Wind Speed Wind Gust Humidity Rainfall Rate (Hourly)
00:13 34.0 °F 26.6 °F 23.48 in North 2.2 mph -999.0 mph 74 % 0 in
00:28 34.0 °F 26.6 °F 23.48 in NW 3.2 mph -999.0 mph 74 % 0 in
00:43 33.6 °F 26.5 °F 23.48 in West 2.7 mph -999.0 mph 75 % 0 in
00:58 33.8 °F 26.7 °F 23.48 in North 2.2 mph -999.0 mph 75 % 0 in
01:14 34.0 °F 26.6 °F 23.48 in South 1.7 mph -999.0 mph 74 % 0 in
01:29 34.2 °F 26.8 °F 23.48 in WNW 6.8 mph -999.0 mph 74 % 0 in
01:44 34.0 °F 26.3 °F 23.49 in Calm   -999.0 mph 73 % 0 in
02:00 34.2 °F 26.4 °F 23.48 in South 2.2 mph -999.0 mph 73 % 0 in
02:15 34.3 °F 26.5 °F 23.48 in WNW 2.7 mph -999.0 mph 73 % 0 in
02:30 34.2 °F 26.4 °F 23.48 in SW 2.7 mph -999.0 mph 73 % 0 in
02:45 34.0 °F 26.3 °F 23.48 in North 1.7 mph -999.0 mph 73 % 0 in
03:01 33.6 °F 26.8 °F 23.48 in SSW 1.7 mph -999.0 mph 76 % 0 in
03:16 33.3 °F 26.6 °F 23.48 in SSW 2.2 mph -999.0 mph 76 % 0 in
03:32 32.9 °F 26.8 °F 23.47 in West 1.7 mph -999.0 mph 78 % 0 in
03:47 32.9 °F 26.8 °F 23.47 in WSW 1.1 mph -999.0 mph 78 % 0 in
04:02 32.9 °F 27.1 °F 23.46 in Calm   -999.0 mph 79 % 0 in
04:17 32.7 °F 27.5 °F 23.47 in SSW 1.7 mph -999.0 mph 81 % 0 in
04:32 33.1 °F 28.5 °F 23.47 in Calm   -999.0 mph 83 % 0 in
04:48 34.3 °F 30.5 °F 23.47 in WSW 3.7 mph -999.0 mph 86 % 0 in
05:03 35.6 °F 32.1 °F 23.47 in SW 3.2 mph -999.0 mph 87 % 0 in
05:19 37.2 °F 32.8 °F 23.47 in NW 1.7 mph -999.0 mph 84 % 0 in
05:34 37.0 °F 32.6 °F 23.47 in WNW 1.1 mph -999.0 mph 84 % 0 in
05:49 36.3 °F 32.2 °F 23.47 in North 3.2 mph -999.0 mph 85 % 0 in
06:05 37.0 °F 33.2 °F 23.48 in SSW 3.2 mph -999.0 mph 86 % 0 in
06:20 37.4 °F 33.3 °F 23.48 in West 1.7 mph -999.0 mph 85 % 0 in
06:36 37.0 °F 32.9 °F 23.48 in WSW 3.7 mph -999.0 mph 85 % 0 in
06:51 36.3 °F 32.2 °F 23.48 in NW 1.7 mph -999.0 mph 85 % 0 in
07:06 35.2 °F 31.7 °F 23.48 in SSW 1.1 mph -999.0 mph 87 % 0 in
07:21 34.9 °F 31.7 °F 23.48 in Calm   -999.0 mph 88 % 0 in
07:36 34.7 °F 31.8 °F 23.48 in Calm   -999.0 mph 89 % 0 in
07:52 35.8 °F 32.6 °F 23.48 in WNW 1.1 mph -999.0 mph 88 % 0 in
08:07 37.0 °F 32.9 °F 23.48 in NW 3.7 mph -999.0 mph 85 % 0 in
08:22 38.3 °F 33.6 °F 23.49 in NW 2.7 mph -999.0 mph 83 % 0 in
08:38 39.2 °F 33.9 °F 23.48 in NW 1.7 mph -999.0 mph 81 % 0 in
08:53 39.0 °F 34.0 °F 23.49 in NNW 3.2 mph -999.0 mph 82 % 0 in
09:08 39.7 °F 34.3 °F 23.49 in WNW 2.2 mph -999.0 mph 81 % 0 in
09:23 40.1 °F 34.7 °F 23.50 in West 2.2 mph -999.0 mph 81 % 0 in
09:39 41.5 °F 34.5 °F 23.51 in NE 2.7 mph -999.0 mph 76 % 0 in
09:54 41.7 °F 34.4 °F 23.51 in NNW 5.3 mph -999.0 mph 75 % 0 in
10:10 42.3 °F 35.3 °F 23.51 in West 3.2 mph -999.0 mph 76 % 0 in
10:25 42.8 °F 35.4 °F 23.51 in WNW 3.7 mph -999.0 mph 75 % 0 in
10:40 42.4 °F 35.0 °F 23.51 in North 1.1 mph -999.0 mph 75 % 0 in
10:55 43.3 °F 35.9 °F 23.50 in WNW 1.7 mph -999.0 mph 75 % 0 in
11:10 43.7 °F 36.3 °F 23.50 in WNW 5.3 mph -999.0 mph 75 % 0 in
11:26 44.8 °F 37.0 °F 23.48 in SW 2.2 mph -999.0 mph 74 % 0 in
11:41 45.1 °F 37.7 °F 23.48 in WNW 3.2 mph -999.0 mph 75 % 0 in
11:57 44.6 °F 37.5 °F 23.47 in ENE 6.3 mph -999.0 mph 76 % 0 in
12:12 44.8 °F 38.0 °F 23.47 in WNW 4.7 mph -999.0 mph 77 % 0 in
12:27 43.3 °F 36.9 °F 23.47 in NW 3.2 mph -999.0 mph 78 % 0 in
12:42 43.3 °F 37.2 °F 23.45 in WNW 3.7 mph -999.0 mph 79 % 0 in
12:57 43.3 °F 37.2 °F 23.45 in NW 4.7 mph -999.0 mph 79 % 0 in
13:13 42.3 °F 36.9 °F 23.45 in North 3.7 mph -999.0 mph 81 % 0 in
13:29 41.0 °F 36.5 °F 23.45 in North 4.2 mph -999.0 mph 84 % 0 in
13:44 42.1 °F 37.9 °F 23.44 in NW 4.2 mph -999.0 mph 85 % 0 in
13:59 42.4 °F 37.6 °F 23.44 in NNW 4.2 mph -999.0 mph 83 % 0 in
14:14 42.6 °F 38.1 °F 23.44 in NW 5.8 mph -999.0 mph 84 % 0 in
14:30 41.5 °F 37.3 °F 23.43 in North 4.2 mph -999.0 mph 85 % 0 in
14:46 41.2 °F 37.3 °F 23.43 in WNW 3.7 mph -999.0 mph 86 % 0 in
15:01 41.2 °F 37.6 °F 23.43 in SSW 1.7 mph -999.0 mph 87 % 0 in
15:16 41.4 °F 37.8 °F 23.44 in NW 3.2 mph -999.0 mph 87 % 0 in
15:31 40.8 °F 37.5 °F 23.44 in WNW 2.2 mph -999.0 mph 88 % 0 in
15:47 40.6 °F 37.6 °F 23.44 in West 1.1 mph -999.0 mph 89 % 0 in
16:02 40.3 °F 37.9 °F 23.44 in NW 1.7 mph -999.0 mph 91 % 0 in
16:17 39.9 °F 37.5 °F 23.44 in West 1.1 mph -999.0 mph 91 % 0 in
16:32 39.7 °F 37.3 °F 23.44 in NNE 3.2 mph -999.0 mph 91 % 0 in
16:47 39.4 °F 37.3 °F 23.45 in NW 2.7 mph -999.0 mph 92 % 0 in
17:03 39.2 °F 37.3 °F 23.45 in West 1.1 mph -999.0 mph 93 % 0 in
17:18 38.8 °F 37.2 °F 23.44 in WSW 2.2 mph -999.0 mph 94 % 0 in
17:33 38.5 °F 37.2 °F 23.45 in North 2.2 mph -999.0 mph 95 % 0 in
17:48 38.1 °F 36.8 °F 23.45 in WNW 1.7 mph -999.0 mph 95 % 0 in
18:03 38.1 °F 36.8 °F 23.45 in NW 2.2 mph -999.0 mph 95 % 0 in
18:19 37.8 °F 36.8 °F 23.45 in NW 2.7 mph -999.0 mph 96 % 0 in
18:34 37.4 °F 36.6 °F 23.44 in NE 3.7 mph -999.0 mph 97 % 0 in
18:49 37.4 °F 36.6 °F 23.44 in WNW 2.2 mph -999.0 mph 97 % 0 in
19:05 37.4 °F 36.9 °F 23.44 in NW 2.7 mph -999.0 mph 98 % 0 in
19:20 37.2 °F 36.7 °F 23.44 in NW 6.3 mph -999.0 mph 98 % 0 in
19:35 37.2 °F 36.7 °F 23.45 in West 1.7 mph -999.0 mph 98 % 0 in
19:50 37.0 °F 36.5 °F 23.45 in WNW 1.7 mph -999.0 mph 98 % 0 in
20:05 36.9 °F 36.6 °F 23.44 in NNW 2.2 mph -999.0 mph 99 % 0 in
20:21 36.7 °F 36.4 °F 23.44 in NW 2.7 mph -999.0 mph 99 % 0 in
20:36 36.3 °F 36.0 °F 23.44 in Calm   -999.0 mph 99 % 0 in
20:51 36.0 °F 35.7 °F 23.43 in WSW 2.2 mph -999.0 mph 99 % 0 in
21:06 36.0 °F 35.7 °F 23.43 in NW 4.2 mph -999.0 mph 99 % 0 in
21:21 35.8 °F 35.5 °F 23.44 in WSW 1.1 mph -999.0 mph 99 % 0 in
21:37 35.6 °F 35.3 °F 23.44 in SW 1.1 mph -999.0 mph 99 % 0 in
21:52 35.4 °F 35.1 °F 23.44 in South 2.7 mph -999.0 mph 99 % 0 in
22:07 35.8 °F 35.5 °F 23.43 in WNW 4.7 mph -999.0 mph 99 % 0 in
22:23 36.0 °F 35.7 °F 23.43 in NE 2.7 mph -999.0 mph 99 % 0 in
22:38 35.8 °F 35.5 °F 23.44 in WNW 1.7 mph -999.0 mph 99 % 0 in
22:53 36.0 °F 35.7 °F 23.44 in WNW 1.7 mph -999.0 mph 99 % 0 in
23:08 36.1 °F 35.8 °F 23.44 in SSE 2.7 mph -999.0 mph 99 % 0 in
23:23 36.9 °F 36.6 °F 23.44 in NW 1.7 mph -999.0 mph 99 % 0 in
23:39 36.9 °F 36.6 °F 23.43 in WNW 1.7 mph -999.0 mph 99 % 0 in
23:54 36.7 °F 36.2 °F 23.42 in WNW 7.8 mph -999.0 mph 98 % 0 in
Big Bear CA Weather
Compliments of Weather Underground - 1.5 mb